sensor_id;sensor_type;location;lat;lon;timestamp;P1;durP1;ratioP1;P2;durP2;ratioP2
846;SDS011;410;48.954;9.474;2022-10-17T00:00:29;9.20;;;4.33;;
846;SDS011;410;48.954;9.474;2022-10-17T00:02:32;8.83;;;4.50;;
846;SDS011;410;48.954;9.474;2022-10-17T00:04:35;8.37;;;4.47;;
846;SDS011;410;48.954;9.474;2022-10-17T00:06:38;13.77;;;4.73;;
846;SDS011;410;48.954;9.474;2022-10-17T00:08:43;6.73;;;3.83;;
846;SDS011;410;48.954;9.474;2022-10-17T00:10:55;10.63;;;4.07;;
846;SDS011;410;48.954;9.474;2022-10-17T00:13:00;6.50;;;4.30;;
846;SDS011;410;48.954;9.474;2022-10-17T00:15:03;13.27;;;5.07;;
846;SDS011;410;48.954;9.474;2022-10-17T00:17:08;9.40;;;4.83;;
846;SDS011;410;48.954;9.474;2022-10-17T00:19:11;8.43;;;5.07;;
846;SDS011;410;48.954;9.474;2022-10-17T00:21:15;8.07;;;4.37;;
846;SDS011;410;48.954;9.474;2022-10-17T00:23:18;5.83;;;4.27;;
846;SDS011;410;48.954;9.474;2022-10-17T00:25:21;10.93;;;4.90;;
846;SDS011;410;48.954;9.474;2022-10-17T00:27:26;5.97;;;4.70;;
846;SDS011;410;48.954;9.474;2022-10-17T00:29:30;9.63;;;4.77;;
846;SDS011;410;48.954;9.474;2022-10-17T00:31:33;8.07;;;4.10;;
846;SDS011;410;48.954;9.474;2022-10-17T00:33:38;8.00;;;4.70;;
846;SDS011;410;48.954;9.474;2022-10-17T00:35:43;7.53;;;4.73;;
846;SDS011;410;48.954;9.474;2022-10-17T00:37:46;8.10;;;4.57;;
846;SDS011;410;48.954;9.474;2022-10-17T00:39:51;7.83;;;4.33;;
846;SDS011;410;48.954;9.474;2022-10-17T00:41:54;7.70;;;4.20;;
846;SDS011;410;48.954;9.474;2022-10-17T00:44:00;9.73;;;4.53;;
846;SDS011;410;48.954;9.474;2022-10-17T00:46:04;7.50;;;4.30;;
846;SDS011;410;48.954;9.474;2022-10-17T00:48:07;8.33;;;4.57;;
846;SDS011;410;48.954;9.474;2022-10-17T00:50:12;6.67;;;4.30;;
846;SDS011;410;48.954;9.474;2022-10-17T00:52:15;11.43;;;4.40;;
846;SDS011;410;48.954;9.474;2022-10-17T00:54:22;4.43;;;3.70;;
846;SDS011;410;48.954;9.474;2022-10-17T00:56:27;6.60;;;4.10;;
846;SDS011;410;48.954;9.474;2022-10-17T00:58:32;7.30;;;4.17;;
846;SDS011;410;48.954;9.474;2022-10-17T01:00:37;9.40;;;4.27;;
846;SDS011;410;48.954;9.474;2022-10-17T01:02:40;11.23;;;4.33;;
846;SDS011;410;48.954;9.474;2022-10-17T01:04:44;5.93;;;4.43;;
846;SDS011;410;48.954;9.474;2022-10-17T01:06:50;8.13;;;4.27;;
846;SDS011;410;48.954;9.474;2022-10-17T01:08:53;8.17;;;4.20;;
846;SDS011;410;48.954;9.474;2022-10-17T01:10:58;11.83;;;3.97;;
846;SDS011;410;48.954;9.474;2022-10-17T01:13:09;7.67;;;4.03;;
846;SDS011;410;48.954;9.474;2022-10-17T01:15:18;5.03;;;3.37;;
846;SDS011;410;48.954;9.474;2022-10-17T01:17:28;7.43;;;3.67;;
846;SDS011;410;48.954;9.474;2022-10-17T01:19:45;5.17;;;4.10;;
846;SDS011;410;48.954;9.474;2022-10-17T01:22:00;9.60;;;5.00;;
846;SDS011;410;48.954;9.474;2022-10-17T01:26:49;7.40;;;4.10;;
846;SDS011;410;48.954;9.474;2022-10-17T01:29:04;5.50;;;3.40;;
846;SDS011;410;48.954;9.474;2022-10-17T01:31:16;8.23;;;4.40;;
846;SDS011;410;48.954;9.474;2022-10-17T01:33:25;7.03;;;4.03;;
846;SDS011;410;48.954;9.474;2022-10-17T01:35:35;6.50;;;3.80;;
846;SDS011;410;48.954;9.474;2022-10-17T01:37:43;9.43;;;4.03;;
846;SDS011;410;48.954;9.474;2022-10-17T01:39:50;6.83;;;3.90;;
846;SDS011;410;48.954;9.474;2022-10-17T01:41:56;6.23;;;3.97;;
846;SDS011;410;48.954;9.474;2022-10-17T01:44:02;7.00;;;3.83;;
846;SDS011;410;48.954;9.474;2022-10-17T01:46:11;8.53;;;4.07;;
846;SDS011;410;48.954;9.474;2022-10-17T01:48:17;7.10;;;3.53;;
846;SDS011;410;48.954;9.474;2022-10-17T01:50:24;6.33;;;4.33;;
846;SDS011;410;48.954;9.474;2022-10-17T01:52:31;7.40;;;3.60;;
846;SDS011;410;48.954;9.474;2022-10-17T01:54:38;6.13;;;3.83;;
846;SDS011;410;48.954;9.474;2022-10-17T01:56:42;9.53;;;3.97;;
846;SDS011;410;48.954;9.474;2022-10-17T01:58:47;8.63;;;4.40;;
846;SDS011;410;48.954;9.474;2022-10-17T02:00:52;7.17;;;3.80;;
846;SDS011;410;48.954;9.474;2022-10-17T02:02:58;6.90;;;3.97;;
846;SDS011;410;48.954;9.474;2022-10-17T02:05:04;5.60;;;3.50;;
846;SDS011;410;48.954;9.474;2022-10-17T02:07:08;5.60;;;3.70;;
846;SDS011;410;48.954;9.474;2022-10-17T02:09:14;4.73;;;3.37;;
846;SDS011;410;48.954;9.474;2022-10-17T02:11:22;6.87;;;3.90;;
846;SDS011;410;48.954;9.474;2022-10-17T02:13:30;5.50;;;3.40;;
846;SDS011;410;48.954;9.474;2022-10-17T02:15:45;8.97;;;3.93;;
846;SDS011;410;48.954;9.474;2022-10-17T02:17:56;7.93;;;3.50;;
846;SDS011;410;48.954;9.474;2022-10-17T02:20:09;6.83;;;3.50;;
846;SDS011;410;48.954;9.474;2022-10-17T02:22:22;7.70;;;3.60;;
846;SDS011;410;48.954;9.474;2022-10-17T02:24:33;5.50;;;3.03;;
846;SDS011;410;48.954;9.474;2022-10-17T02:26:40;10.30;;;3.70;;
846;SDS011;410;48.954;9.474;2022-10-17T02:28:46;7.37;;;3.63;;
846;SDS011;410;48.954;9.474;2022-10-17T02:30:54;6.50;;;3.23;;
846;SDS011;410;48.954;9.474;2022-10-17T02:33:01;4.70;;;3.10;;
846;SDS011;410;48.954;9.474;2022-10-17T02:35:11;6.93;;;3.40;;
846;SDS011;410;48.954;9.474;2022-10-17T02:37:17;12.00;;;3.80;;
846;SDS011;410;48.954;9.474;2022-10-17T02:39:22;8.60;;;3.83;;
846;SDS011;410;48.954;9.474;2022-10-17T02:41:27;13.23;;;3.63;;
846;SDS011;410;48.954;9.474;2022-10-17T02:43:32;6.80;;;3.90;;
846;SDS011;410;48.954;9.474;2022-10-17T02:45:36;5.40;;;3.83;;
846;SDS011;410;48.954;9.474;2022-10-17T02:47:42;7.77;;;3.90;;
846;SDS011;410;48.954;9.474;2022-10-17T02:49:51;5.07;;;3.60;;
846;SDS011;410;48.954;9.474;2022-10-17T02:51:59;3.93;;;3.53;;
846;SDS011;410;48.954;9.474;2022-10-17T02:54:05;6.10;;;3.30;;
846;SDS011;410;48.954;9.474;2022-10-17T02:56:13;6.27;;;3.60;;
846;SDS011;410;48.954;9.474;2022-10-17T02:58:20;6.43;;;3.70;;
846;SDS011;410;48.954;9.474;2022-10-17T03:00:26;6.23;;;3.50;;
846;SDS011;410;48.954;9.474;2022-10-17T03:02:36;10.07;;;4.43;;
846;SDS011;410;48.954;9.474;2022-10-17T03:04:42;4.47;;;3.00;;
846;SDS011;410;48.954;9.474;2022-10-17T03:06:46;6.57;;;3.07;;
846;SDS011;410;48.954;9.474;2022-10-17T03:08:53;3.33;;;3.03;;
846;SDS011;410;48.954;9.474;2022-10-17T03:10:56;5.87;;;3.53;;
846;SDS011;410;48.954;9.474;2022-10-17T03:13:01;5.73;;;3.50;;
846;SDS011;410;48.954;9.474;2022-10-17T03:15:06;8.13;;;3.87;;
846;SDS011;410;48.954;9.474;2022-10-17T03:17:10;9.77;;;3.30;;
846;SDS011;410;48.954;9.474;2022-10-17T03:19:13;4.30;;;3.63;;
846;SDS011;410;48.954;9.474;2022-10-17T03:21:17;5.40;;;3.30;;
846;SDS011;410;48.954;9.474;2022-10-17T03:23:20;5.20;;;3.20;;
846;SDS011;410;48.954;9.474;2022-10-17T03:25:25;4.40;;;3.50;;
846;SDS011;410;48.954;9.474;2022-10-17T03:27:28;6.10;;;3.20;;
846;SDS011;410;48.954;9.474;2022-10-17T03:29:32;13.10;;;3.50;;
846;SDS011;410;48.954;9.474;2022-10-17T03:31:37;8.17;;;3.47;;
846;SDS011;410;48.954;9.474;2022-10-17T03:33:41;7.07;;;3.67;;
846;SDS011;410;48.954;9.474;2022-10-17T03:35:44;6.40;;;3.70;;
846;SDS011;410;48.954;9.474;2022-10-17T03:37:47;7.80;;;3.70;;
846;SDS011;410;48.954;9.474;2022-10-17T03:39:53;6.40;;;3.23;;
846;SDS011;410;48.954;9.474;2022-10-17T03:41:57;5.73;;;3.77;;
846;SDS011;410;48.954;9.474;2022-10-17T03:44:00;5.20;;;3.87;;
846;SDS011;410;48.954;9.474;2022-10-17T03:46:05;4.80;;;3.87;;
846;SDS011;410;48.954;9.474;2022-10-17T03:48:09;4.03;;;3.20;;
846;SDS011;410;48.954;9.474;2022-10-17T03:50:13;5.73;;;3.43;;
846;SDS011;410;48.954;9.474;2022-10-17T03:52:17;5.90;;;3.20;;
846;SDS011;410;48.954;9.474;2022-10-17T03:54:21;8.60;;;4.17;;
846;SDS011;410;48.954;9.474;2022-10-17T03:56:24;5.63;;;3.33;;
846;SDS011;410;48.954;9.474;2022-10-17T03:58:37;9.40;;;3.87;;
846;SDS011;410;48.954;9.474;2022-10-17T04:00:40;10.90;;;3.77;;
846;SDS011;410;48.954;9.474;2022-10-17T04:02:43;9.10;;;4.30;;
846;SDS011;410;48.954;9.474;2022-10-17T04:04:51;6.30;;;3.43;;
846;SDS011;410;48.954;9.474;2022-10-17T04:06:55;7.57;;;4.40;;
846;SDS011;410;48.954;9.474;2022-10-17T04:08:59;4.40;;;3.60;;
846;SDS011;410;48.954;9.474;2022-10-17T04:11:12;5.40;;;3.07;;
846;SDS011;410;48.954;9.474;2022-10-17T04:13:17;6.20;;;3.30;;
846;SDS011;410;48.954;9.474;2022-10-17T04:15:21;7.70;;;3.27;;
846;SDS011;410;48.954;9.474;2022-10-17T04:17:26;6.50;;;3.60;;
846;SDS011;410;48.954;9.474;2022-10-17T04:19:39;7.87;;;3.23;;
846;SDS011;410;48.954;9.474;2022-10-17T04:21:42;5.57;;;2.83;;
846;SDS011;410;48.954;9.474;2022-10-17T04:23:47;4.00;;;3.50;;
846;SDS011;410;48.954;9.474;2022-10-17T04:26:03;9.20;;;3.30;;
846;SDS011;410;48.954;9.474;2022-10-17T04:28:07;4.70;;;3.13;;
846;SDS011;410;48.954;9.474;2022-10-17T04:30:11;6.10;;;2.90;;
846;SDS011;410;48.954;9.474;2022-10-17T04:32:17;7.87;;;4.47;;
846;SDS011;410;48.954;9.474;2022-10-17T04:34:29;7.20;;;3.47;;
846;SDS011;410;48.954;9.474;2022-10-17T04:36:33;4.93;;;3.30;;
846;SDS011;410;48.954;9.474;2022-10-17T04:38:36;6.90;;;3.57;;
846;SDS011;410;48.954;9.474;2022-10-17T04:40:40;6.20;;;4.00;;
846;SDS011;410;48.954;9.474;2022-10-17T04:42:43;7.50;;;4.00;;
846;SDS011;410;48.954;9.474;2022-10-17T04:44:51;5.80;;;3.70;;
846;SDS011;410;48.954;9.474;2022-10-17T04:46:57;5.30;;;3.87;;
846;SDS011;410;48.954;9.474;2022-10-17T04:49:02;6.20;;;3.93;;
846;SDS011;410;48.954;9.474;2022-10-17T04:51:07;4.37;;;3.97;;
846;SDS011;410;48.954;9.474;2022-10-17T04:53:22;5.73;;;4.03;;
846;SDS011;410;48.954;9.474;2022-10-17T04:55:26;6.23;;;3.97;;
846;SDS011;410;48.954;9.474;2022-10-17T04:57:29;6.57;;;3.50;;
846;SDS011;410;48.954;9.474;2022-10-17T04:59:39;6.70;;;3.97;;
846;SDS011;410;48.954;9.474;2022-10-17T05:01:52;6.30;;;4.23;;
846;SDS011;410;48.954;9.474;2022-10-17T05:03:55;7.17;;;3.77;;
846;SDS011;410;48.954;9.474;2022-10-17T05:06:03;4.40;;;3.63;;
846;SDS011;410;48.954;9.474;2022-10-17T05:08:07;6.03;;;3.60;;
846;SDS011;410;48.954;9.474;2022-10-17T05:10:12;5.07;;;3.50;;
846;SDS011;410;48.954;9.474;2022-10-17T05:12:20;5.60;;;3.47;;
846;SDS011;410;48.954;9.474;2022-10-17T05:14:23;4.80;;;3.40;;
846;SDS011;410;48.954;9.474;2022-10-17T05:16:27;4.93;;;3.80;;
846;SDS011;410;48.954;9.474;2022-10-17T05:18:31;12.20;;;3.97;;
846;SDS011;410;48.954;9.474;2022-10-17T05:20:35;8.03;;;3.50;;
846;SDS011;410;48.954;9.474;2022-10-17T05:22:41;5.97;;;3.90;;
846;SDS011;410;48.954;9.474;2022-10-17T05:24:45;10.57;;;4.00;;
846;SDS011;410;48.954;9.474;2022-10-17T05:26:48;8.73;;;3.63;;
846;SDS011;410;48.954;9.474;2022-10-17T05:28:53;5.27;;;3.23;;
846;SDS011;410;48.954;9.474;2022-10-17T05:31:01;6.80;;;3.20;;
846;SDS011;410;48.954;9.474;2022-10-17T05:33:05;5.50;;;3.23;;
846;SDS011;410;48.954;9.474;2022-10-17T05:35:09;5.63;;;3.10;;
846;SDS011;410;48.954;9.474;2022-10-17T05:37:12;6.33;;;3.47;;
846;SDS011;410;48.954;9.474;2022-10-17T05:39:21;3.97;;;3.07;;
846;SDS011;410;48.954;9.474;2022-10-17T05:41:25;4.23;;;3.30;;
846;SDS011;410;48.954;9.474;2022-10-17T05:43:29;6.60;;;3.40;;
846;SDS011;410;48.954;9.474;2022-10-17T05:45:32;5.47;;;3.50;;
846;SDS011;410;48.954;9.474;2022-10-17T05:47:36;6.40;;;3.60;;
846;SDS011;410;48.954;9.474;2022-10-17T05:49:39;8.93;;;3.60;;
846;SDS011;410;48.954;9.474;2022-10-17T05:51:51;3.90;;;3.43;;
846;SDS011;410;48.954;9.474;2022-10-17T05:53:54;7.83;;;3.93;;
846;SDS011;410;48.954;9.474;2022-10-17T05:56:03;6.00;;;4.03;;
846;SDS011;410;48.954;9.474;2022-10-17T05:58:09;4.93;;;3.67;;
846;SDS011;410;48.954;9.474;2022-10-17T06:00:24;8.20;;;4.10;;
846;SDS011;410;48.954;9.474;2022-10-17T06:02:31;6.83;;;4.20;;
846;SDS011;410;48.954;9.474;2022-10-17T06:04:34;11.20;;;4.60;;
846;SDS011;410;48.954;9.474;2022-10-17T06:06:38;13.13;;;4.30;;
846;SDS011;410;48.954;9.474;2022-10-17T06:08:43;8.70;;;4.20;;
846;SDS011;410;48.954;9.474;2022-10-17T06:10:50;6.70;;;3.77;;
846;SDS011;410;48.954;9.474;2022-10-17T06:12:55;9.50;;;3.97;;
846;SDS011;410;48.954;9.474;2022-10-17T06:14:59;4.80;;;4.00;;
846;SDS011;410;48.954;9.474;2022-10-17T06:17:03;6.80;;;4.30;;
846;SDS011;410;48.954;9.474;2022-10-17T06:19:06;6.80;;;4.27;;
846;SDS011;410;48.954;9.474;2022-10-17T06:21:10;6.50;;;4.23;;
846;SDS011;410;48.954;9.474;2022-10-17T06:23:18;6.83;;;3.83;;
846;SDS011;410;48.954;9.474;2022-10-17T06:25:29;5.47;;;4.10;;
846;SDS011;410;48.954;9.474;2022-10-17T06:27:32;7.37;;;4.30;;
846;SDS011;410;48.954;9.474;2022-10-17T06:29:37;8.50;;;4.27;;
846;SDS011;410;48.954;9.474;2022-10-17T06:31:40;9.20;;;4.37;;
846;SDS011;410;48.954;9.474;2022-10-17T06:33:43;6.03;;;4.00;;
846;SDS011;410;48.954;9.474;2022-10-17T06:35:49;16.13;;;4.40;;
846;SDS011;410;48.954;9.474;2022-10-17T06:37:53;15.20;;;4.43;;
846;SDS011;410;48.954;9.474;2022-10-17T06:39:57;9.10;;;3.90;;
846;SDS011;410;48.954;9.474;2022-10-17T06:42:00;12.93;;;4.27;;
846;SDS011;410;48.954;9.474;2022-10-17T06:44:31;8.93;;;3.87;;
846;SDS011;410;48.954;9.474;2022-10-17T06:46:54;12.40;;;4.30;;
846;SDS011;410;48.954;9.474;2022-10-17T06:48:57;9.93;;;4.47;;
846;SDS011;410;48.954;9.474;2022-10-17T06:51:09;7.57;;;4.13;;
846;SDS011;410;48.954;9.474;2022-10-17T06:53:21;6.67;;;4.23;;
846;SDS011;410;48.954;9.474;2022-10-17T06:55:25;7.60;;;4.77;;
846;SDS011;410;48.954;9.474;2022-10-17T06:57:47;5.87;;;3.63;;
846;SDS011;410;48.954;9.474;2022-10-17T07:00:15;11.30;;;4.73;;
846;SDS011;410;48.954;9.474;2022-10-17T07:02:24;6.50;;;4.20;;
846;SDS011;410;48.954;9.474;2022-10-17T07:04:30;6.47;;;4.40;;
846;SDS011;410;48.954;9.474;2022-10-17T07:06:34;7.17;;;5.27;;
846;SDS011;410;48.954;9.474;2022-10-17T07:08:50;6.33;;;4.80;;
846;SDS011;410;48.954;9.474;2022-10-17T07:10:53;10.97;;;4.67;;
846;SDS011;410;48.954;9.474;2022-10-17T07:12:57;7.40;;;4.70;;
846;SDS011;410;48.954;9.474;2022-10-17T07:15:00;7.17;;;4.53;;
846;SDS011;410;48.954;9.474;2022-10-17T07:17:04;9.33;;;4.70;;
846;SDS011;410;48.954;9.474;2022-10-17T07:19:09;9.20;;;4.70;;
846;SDS011;410;48.954;9.474;2022-10-17T07:21:13;9.70;;;4.67;;
846;SDS011;410;48.954;9.474;2022-10-17T07:23:17;11.03;;;5.07;;
846;SDS011;410;48.954;9.474;2022-10-17T07:25:20;9.77;;;4.43;;
846;SDS011;410;48.954;9.474;2022-10-17T07:27:28;7.80;;;4.97;;
846;SDS011;410;48.954;9.474;2022-10-17T07:29:31;8.30;;;4.83;;
846;SDS011;410;48.954;9.474;2022-10-17T07:31:41;6.60;;;4.80;;
846;SDS011;410;48.954;9.474;2022-10-17T07:33:46;10.10;;;5.60;;
846;SDS011;410;48.954;9.474;2022-10-17T07:35:50;7.83;;;4.77;;
846;SDS011;410;48.954;9.474;2022-10-17T07:37:54;8.93;;;4.73;;
846;SDS011;410;48.954;9.474;2022-10-17T07:39:57;9.97;;;4.90;;
846;SDS011;410;48.954;9.474;2022-10-17T07:42:00;7.63;;;4.17;;
846;SDS011;410;48.954;9.474;2022-10-17T07:44:04;6.03;;;4.57;;
846;SDS011;410;48.954;9.474;2022-10-17T07:46:13;8.60;;;5.40;;
846;SDS011;410;48.954;9.474;2022-10-17T07:48:17;11.10;;;5.03;;
846;SDS011;410;48.954;9.474;2022-10-17T07:50:21;7.90;;;4.57;;
846;SDS011;410;48.954;9.474;2022-10-17T07:52:25;9.07;;;4.43;;
846;SDS011;410;48.954;9.474;2022-10-17T07:54:29;7.67;;;4.10;;
846;SDS011;410;48.954;9.474;2022-10-17T07:56:32;7.97;;;4.80;;
846;SDS011;410;48.954;9.474;2022-10-17T07:58:35;7.83;;;5.00;;
846;SDS011;410;48.954;9.474;2022-10-17T08:00:39;9.40;;;5.63;;
846;SDS011;410;48.954;9.474;2022-10-17T08:02:42;8.60;;;4.50;;
846;SDS011;410;48.954;9.474;2022-10-17T08:04:45;10.00;;;4.53;;
846;SDS011;410;48.954;9.474;2022-10-17T08:06:49;8.73;;;4.53;;
846;SDS011;410;48.954;9.474;2022-10-17T08:09:02;5.67;;;4.20;;
846;SDS011;410;48.954;9.474;2022-10-17T08:11:06;8.87;;;4.70;;
846;SDS011;410;48.954;9.474;2022-10-17T08:13:10;8.90;;;4.70;;
846;SDS011;410;48.954;9.474;2022-10-17T08:15:13;9.20;;;4.43;;
846;SDS011;410;48.954;9.474;2022-10-17T08:17:16;5.73;;;3.80;;
846;SDS011;410;48.954;9.474;2022-10-17T08:19:19;7.87;;;3.97;;
846;SDS011;410;48.954;9.474;2022-10-17T08:21:22;6.70;;;3.80;;
846;SDS011;410;48.954;9.474;2022-10-17T08:23:26;6.00;;;4.20;;
846;SDS011;410;48.954;9.474;2022-10-17T08:25:30;6.60;;;4.60;;
846;SDS011;410;48.954;9.474;2022-10-17T08:27:34;7.93;;;4.93;;
846;SDS011;410;48.954;9.474;2022-10-17T08:29:37;7.00;;;4.50;;
846;SDS011;410;48.954;9.474;2022-10-17T08:31:40;5.63;;;4.30;;
846;SDS011;410;48.954;9.474;2022-10-17T08:33:49;5.43;;;4.57;;
846;SDS011;410;48.954;9.474;2022-10-17T08:35:52;8.23;;;4.43;;
846;SDS011;410;48.954;9.474;2022-10-17T08:37:57;9.60;;;5.13;;
846;SDS011;410;48.954;9.474;2022-10-17T08:40:02;9.70;;;4.07;;
846;SDS011;410;48.954;9.474;2022-10-17T08:42:14;5.77;;;3.87;;
846;SDS011;410;48.954;9.474;2022-10-17T08:44:42;7.40;;;4.57;;
846;SDS011;410;48.954;9.474;2022-10-17T08:46:52;7.13;;;4.10;;
846;SDS011;410;48.954;9.474;2022-10-17T08:48:57;5.43;;;4.10;;
846;SDS011;410;48.954;9.474;2022-10-17T08:51:06;8.00;;;4.40;;
846;SDS011;410;48.954;9.474;2022-10-17T08:53:14;7.40;;;4.30;;
846;SDS011;410;48.954;9.474;2022-10-17T08:55:25;8.20;;;4.73;;
846;SDS011;410;48.954;9.474;2022-10-17T08:57:32;6.10;;;4.30;;
846;SDS011;410;48.954;9.474;2022-10-17T08:59:36;8.60;;;4.10;;
846;SDS011;410;48.954;9.474;2022-10-17T09:01:40;10.37;;;3.93;;
846;SDS011;410;48.954;9.474;2022-10-17T09:03:51;7.80;;;4.97;;
846;SDS011;410;48.954;9.474;2022-10-17T09:06:10;5.60;;;4.60;;
846;SDS011;410;48.954;9.474;2022-10-17T09:08:21;7.37;;;4.40;;
846;SDS011;410;48.954;9.474;2022-10-17T09:10:34;8.90;;;4.17;;
846;SDS011;410;48.954;9.474;2022-10-17T09:12:48;9.20;;;5.00;;
846;SDS011;410;48.954;9.474;2022-10-17T09:15:25;7.27;;;4.50;;
846;SDS011;410;48.954;9.474;2022-10-17T09:17:37;7.03;;;3.80;;
846;SDS011;410;48.954;9.474;2022-10-17T09:19:53;6.93;;;4.10;;
846;SDS011;410;48.954;9.474;2022-10-17T09:22:02;4.27;;;3.43;;
846;SDS011;410;48.954;9.474;2022-10-17T09:24:10;5.77;;;3.60;;
846;SDS011;410;48.954;9.474;2022-10-17T09:26:17;6.20;;;3.67;;
846;SDS011;410;48.954;9.474;2022-10-17T09:28:22;3.93;;;3.40;;
846;SDS011;410;48.954;9.474;2022-10-17T09:30:31;6.43;;;3.67;;
846;SDS011;410;48.954;9.474;2022-10-17T09:32:46;4.10;;;3.47;;
846;SDS011;410;48.954;9.474;2022-10-17T09:34:50;3.77;;;3.20;;
846;SDS011;410;48.954;9.474;2022-10-17T09:36:54;6.83;;;3.70;;
846;SDS011;410;48.954;9.474;2022-10-17T09:39:02;4.20;;;3.50;;
846;SDS011;410;48.954;9.474;2022-10-17T09:41:12;11.07;;;3.20;;
846;SDS011;410;48.954;9.474;2022-10-17T09:43:41;5.70;;;2.90;;
846;SDS011;410;48.954;9.474;2022-10-17T09:45:45;9.20;;;3.80;;
846;SDS011;410;48.954;9.474;2022-10-17T09:47:59;5.17;;;3.53;;
846;SDS011;410;48.954;9.474;2022-10-17T09:50:04;11.20;;;4.30;;
846;SDS011;410;48.954;9.474;2022-10-17T09:52:24;9.57;;;4.13;;
846;SDS011;410;48.954;9.474;2022-10-17T09:54:34;9.73;;;4.50;;
846;SDS011;410;48.954;9.474;2022-10-17T09:56:56;6.13;;;3.73;;
846;SDS011;410;48.954;9.474;2022-10-17T09:59:01;8.33;;;5.00;;
846;SDS011;410;48.954;9.474;2022-10-17T10:01:13;7.27;;;4.30;;
846;SDS011;410;48.954;9.474;2022-10-17T10:03:24;6.93;;;4.00;;
846;SDS011;410;48.954;9.474;2022-10-17T10:05:28;5.63;;;3.63;;
846;SDS011;410;48.954;9.474;2022-10-17T10:07:32;11.90;;;3.30;;
846;SDS011;410;48.954;9.474;2022-10-17T10:09:36;5.80;;;2.73;;
846;SDS011;410;48.954;9.474;2022-10-17T10:11:44;4.30;;;2.90;;
846;SDS011;410;48.954;9.474;2022-10-17T10:13:48;4.30;;;3.10;;
846;SDS011;410;48.954;9.474;2022-10-17T10:15:53;4.90;;;2.77;;
846;SDS011;410;48.954;9.474;2022-10-17T10:20:34;5.30;;;3.23;;
846;SDS011;410;48.954;9.474;2022-10-17T10:22:39;5.33;;;3.20;;
846;SDS011;410;48.954;9.474;2022-10-17T10:24:42;3.87;;;2.70;;
846;SDS011;410;48.954;9.474;2022-10-17T10:26:46;3.40;;;2.50;;
846;SDS011;410;48.954;9.474;2022-10-17T10:28:53;7.40;;;2.77;;
846;SDS011;410;48.954;9.474;2022-10-17T10:31:02;6.77;;;2.70;;
846;SDS011;410;48.954;9.474;2022-10-17T10:33:09;5.63;;;2.63;;
846;SDS011;410;48.954;9.474;2022-10-17T10:35:18;6.00;;;2.77;;
846;SDS011;410;48.954;9.474;2022-10-17T10:37:23;5.60;;;2.60;;
846;SDS011;410;48.954;9.474;2022-10-17T10:39:32;3.80;;;2.43;;
846;SDS011;410;48.954;9.474;2022-10-17T10:41:46;7.00;;;2.30;;
846;SDS011;410;48.954;9.474;2022-10-17T10:43:50;6.53;;;2.43;;
846;SDS011;410;48.954;9.474;2022-10-17T10:45:54;6.43;;;2.63;;
846;SDS011;410;48.954;9.474;2022-10-17T10:47:58;2.97;;;2.40;;
846;SDS011;410;48.954;9.474;2022-10-17T10:50:07;3.73;;;2.30;;
846;SDS011;410;48.954;9.474;2022-10-17T10:52:24;6.90;;;2.10;;
846;SDS011;410;48.954;9.474;2022-10-17T10:54:35;4.10;;;2.50;;
846;SDS011;410;48.954;9.474;2022-10-17T10:56:40;6.23;;;2.60;;
846;SDS011;410;48.954;9.474;2022-10-17T10:58:48;5.60;;;2.33;;
846;SDS011;410;48.954;9.474;2022-10-17T11:00:55;3.03;;;2.40;;
846;SDS011;410;48.954;9.474;2022-10-17T11:03:03;4.40;;;2.30;;
846;SDS011;410;48.954;9.474;2022-10-17T11:05:15;5.77;;;2.70;;
846;SDS011;410;48.954;9.474;2022-10-17T11:07:23;5.83;;;2.70;;
846;SDS011;410;48.954;9.474;2022-10-17T11:09:35;3.83;;;2.30;;
846;SDS011;410;48.954;9.474;2022-10-17T11:11:47;5.20;;;2.70;;
846;SDS011;410;48.954;9.474;2022-10-17T11:13:57;3.63;;;2.40;;
846;SDS011;410;48.954;9.474;2022-10-17T11:16:09;3.80;;;2.53;;
846;SDS011;410;48.954;9.474;2022-10-17T11:18:21;3.07;;;2.50;;
846;SDS011;410;48.954;9.474;2022-10-17T11:20:29;6.03;;;2.70;;
846;SDS011;410;48.954;9.474;2022-10-17T11:22:37;9.13;;;2.87;;
846;SDS011;410;48.954;9.474;2022-10-17T11:24:44;4.60;;;2.43;;
846;SDS011;410;48.954;9.474;2022-10-17T11:26:57;6.60;;;2.80;;
846;SDS011;410;48.954;9.474;2022-10-17T11:29:03;6.10;;;2.87;;
846;SDS011;410;48.954;9.474;2022-10-17T11:31:09;8.60;;;2.50;;
846;SDS011;410;48.954;9.474;2022-10-17T11:33:16;5.87;;;3.00;;
846;SDS011;410;48.954;9.474;2022-10-17T11:35:24;7.63;;;2.70;;
846;SDS011;410;48.954;9.474;2022-10-17T11:37:29;5.53;;;2.40;;
846;SDS011;410;48.954;9.474;2022-10-17T11:39:35;3.17;;;2.50;;
846;SDS011;410;48.954;9.474;2022-10-17T11:41:44;3.47;;;2.60;;
846;SDS011;410;48.954;9.474;2022-10-17T11:43:50;6.70;;;2.47;;
846;SDS011;410;48.954;9.474;2022-10-17T11:45:57;2.60;;;2.30;;
846;SDS011;410;48.954;9.474;2022-10-17T11:48:03;5.40;;;2.63;;
846;SDS011;410;48.954;9.474;2022-10-17T11:50:11;5.67;;;2.40;;
846;SDS011;410;48.954;9.474;2022-10-17T11:52:42;3.40;;;2.20;;
846;SDS011;410;48.954;9.474;2022-10-17T11:54:59;2.80;;;2.43;;
846;SDS011;410;48.954;9.474;2022-10-17T11:57:09;4.60;;;2.30;;
846;SDS011;410;48.954;9.474;2022-10-17T11:59:41;5.67;;;2.23;;
846;SDS011;410;48.954;9.474;2022-10-17T12:01:51;5.50;;;2.40;;
846;SDS011;410;48.954;9.474;2022-10-17T12:04:01;4.30;;;2.30;;
846;SDS011;410;48.954;9.474;2022-10-17T12:06:10;4.00;;;2.40;;
846;SDS011;410;48.954;9.474;2022-10-17T12:08:22;4.30;;;2.60;;
846;SDS011;410;48.954;9.474;2022-10-17T12:10:34;3.63;;;2.53;;
846;SDS011;410;48.954;9.474;2022-10-17T12:12:41;4.37;;;2.50;;
846;SDS011;410;48.954;9.474;2022-10-17T12:14:44;5.80;;;2.90;;
846;SDS011;410;48.954;9.474;2022-10-17T12:16:48;8.93;;;4.30;;
846;SDS011;410;48.954;9.474;2022-10-17T12:19:17;11.00;;;3.43;;
846;SDS011;410;48.954;9.474;2022-10-17T12:21:41;3.90;;;2.63;;
846;SDS011;410;48.954;9.474;2022-10-17T12:23:56;3.90;;;2.60;;
846;SDS011;410;48.954;9.474;2022-10-17T12:26:00;8.83;;;2.67;;
846;SDS011;410;48.954;9.474;2022-10-17T12:28:10;5.20;;;2.47;;
846;SDS011;410;48.954;9.474;2022-10-17T12:30:16;7.00;;;2.53;;
846;SDS011;410;48.954;9.474;2022-10-17T12:32:21;3.27;;;2.63;;
846;SDS011;410;48.954;9.474;2022-10-17T12:34:24;3.70;;;2.67;;
846;SDS011;410;48.954;9.474;2022-10-17T12:38:51;5.10;;;2.33;;
846;SDS011;410;48.954;9.474;2022-10-17T12:43:55;3.57;;;3.07;;
846;SDS011;410;48.954;9.474;2022-10-17T12:45:58;4.60;;;2.50;;
846;SDS011;410;48.954;9.474;2022-10-17T12:48:02;4.63;;;2.53;;
846;SDS011;410;48.954;9.474;2022-10-17T12:52:56;3.00;;;2.30;;
846;SDS011;410;48.954;9.474;2022-10-17T12:55:05;5.13;;;2.37;;
846;SDS011;410;48.954;9.474;2022-10-17T12:57:18;3.63;;;2.70;;
846;SDS011;410;48.954;9.474;2022-10-17T12:59:24;4.47;;;2.70;;
846;SDS011;410;48.954;9.474;2022-10-17T13:01:28;2.70;;;2.20;;
846;SDS011;410;48.954;9.474;2022-10-17T13:03:34;5.47;;;2.57;;
846;SDS011;410;48.954;9.474;2022-10-17T13:05:44;3.63;;;2.57;;
846;SDS011;410;48.954;9.474;2022-10-17T13:07:49;7.60;;;3.33;;
846;SDS011;410;48.954;9.474;2022-10-17T13:09:53;6.30;;;3.33;;
846;SDS011;410;48.954;9.474;2022-10-17T13:11:58;6.13;;;2.83;;
846;SDS011;410;48.954;9.474;2022-10-17T13:14:07;4.80;;;2.90;;
846;SDS011;410;48.954;9.474;2022-10-17T13:16:26;8.53;;;3.10;;
846;SDS011;410;48.954;9.474;2022-10-17T13:18:30;6.40;;;3.27;;
846;SDS011;410;48.954;9.474;2022-10-17T13:20:33;4.53;;;2.90;;
846;SDS011;410;48.954;9.474;2022-10-17T13:22:36;3.37;;;2.80;;
846;SDS011;410;48.954;9.474;2022-10-17T13:24:46;5.00;;;2.50;;
846;SDS011;410;48.954;9.474;2022-10-17T13:26:50;6.13;;;2.60;;
846;SDS011;410;48.954;9.474;2022-10-17T13:29:03;6.23;;;3.50;;
846;SDS011;410;48.954;9.474;2022-10-17T13:31:21;5.27;;;2.70;;
846;SDS011;410;48.954;9.474;2022-10-17T13:33:33;4.33;;;2.93;;
846;SDS011;410;48.954;9.474;2022-10-17T13:35:39;3.97;;;2.67;;
846;SDS011;410;48.954;9.474;2022-10-17T13:38:01;7.27;;;2.87;;
846;SDS011;410;48.954;9.474;2022-10-17T13:40:13;4.73;;;3.10;;
846;SDS011;410;48.954;9.474;2022-10-17T13:42:38;3.47;;;2.40;;
846;SDS011;410;48.954;9.474;2022-10-17T13:44:43;5.00;;;2.83;;
846;SDS011;410;48.954;9.474;2022-10-17T13:46:47;4.50;;;2.53;;
846;SDS011;410;48.954;9.474;2022-10-17T13:48:51;9.77;;;3.30;;